Pruszkow, Poland
Current Conditions -  °F | °C
As of 2:00 PM on Friday 28 Nov 2014 (Local Time) from EPWA Reporting Station
Broken Clouds Broken Clouds  
Wind Chill: 19°   Ceiling: 1300
Heat Index: 28°   Visibility: 5mi
Dew Point: 23°   Wind: 10mph
Humidity: 80%   Direction: 100°E
Pressure: 30.27"   Gusts: NA
Location:  52.22°N, 20.82°E
Report Text: EPWA 281200Z 10009KT 8000 BKN013 M02/M05 Q1025 NOSIG
Loading
Personal Weather Stations






























Interactive Weather Map New forecast layout! Learn more

10-Day Weather Forecast

Advertisements
Track Severe Weather on mobile